Time;durP1;ratioP1;P1;durP2;ratioP2;P2;SDS_P1;SDS_P2;PMS_P1;PMS_P2;Temp;Humidity;BMP_temperature;BMP_pressure;BME280_temperature;BME280_humidity;BME280_pressure;Samples;Min_cycle;Max_cycle;Signal;HPM_P1;HPM_P2
2024/04/24 00:01:21;;;;;;;8.03;6.20;;;;;;;;;;6604342;21;20458;-87
2024/04/24 00:03:49;;;;;;;7.30;5.90;;;;;;;;;;6602905;21;20454;-87
2024/04/24 00:06:18;;;;;;;7.27;6.47;;;;;;;;;;6599943;21;20518;-87
2024/04/24 00:08:46;;;;;;;7.40;6.33;;;;;;;;;;6597572;21;20458;-88
2024/04/24 00:11:23;;;;;;;8.43;6.70;;;;;;;;;;6596323;21;20455;-88
2024/04/24 00:14:02;;;;;;;7.20;5.97;;;;;;;;;;6598830;21;20458;-89
2024/04/24 00:16:29;;;;;;;8.93;6.97;;;;;;;;;;6596215;21;20450;-88
2024/04/24 00:19:06;;;;;;;7.40;6.60;;;;;;;;;;6599552;21;20505;-87
2024/04/24 00:21:37;;;;;;;10.30;7.33;;;;;;;;;;6597587;21;20463;-88
2024/04/24 00:24:17;;;;;;;8.77;7.03;;;;;;;;;;6642087;21;20531;-87
2024/04/24 00:26:44;;;;;;;7.47;6.17;;;;;;;;;;6594708;21;20439;-88
2024/04/24 00:29:13;;;;;;;6.77;6.07;;;;;;;;;;6594165;21;20466;-88
2024/04/24 00:31:40;;;;;;;8.13;7.33;;;;;;;;;;6638471;21;20539;-87
2024/04/24 00:34:11;;;;;;;8.77;7.43;;;;;;;;;;6594046;21;20916;-89
2024/04/24 00:36:44;;;;;;;9.30;7.27;;;;;;;;;;6593715;21;20451;-88
2024/04/24 00:39:14;;;;;;;7.90;6.90;;;;;;;;;;6592901;21;20541;-89
2024/04/24 00:41:45;;;;;;;7.60;6.90;;;;;;;;;;6591745;21;20772;-87
2024/04/24 00:44:15;;;;;;;8.47;6.77;;;;;;;;;;6593317;21;20463;-88
2024/04/24 00:46:45;;;;;;;8.37;6.20;;;;;;;;;;6637761;21;20515;-87
2024/04/24 00:49:13;;;;;;;9.10;6.37;;;;;;;;;;6638251;21;20443;-87
2024/04/24 00:51:44;;;;;;;8.90;4.80;;;;;;;;;;6592893;21;20526;-89
2024/04/24 00:54:14;;;;;;;5.77;5.17;;;;;;;;;;6638395;21;20538;-87
2024/04/24 00:56:55;;;;;;;6.90;5.40;;;;;;;;;;6586127;21;20482;-87
2024/04/24 00:59:30;;;;;;;7.13;4.57;;;;;;;;;;6638134;21;20516;-87
2024/04/24 01:01:58;;;;;;;4.80;4.37;;;;;;;;;;6593044;21;20511;-88
2024/04/24 01:04:28;;;;;;;6.57;3.93;;;;;;;;;;6595720;21;20527;-88
2024/04/24 01:06:58;;;;;;;4.80;4.40;;;;;;;;;;6642443;21;20528;-88
2024/04/24 01:09:27;;;;;;;5.90;4.13;;;;;;;;;;6640207;21;20548;-88
2024/04/24 01:11:57;;;;;;;7.83;4.40;;;;;;;;;;6595844;21;20447;-87
2024/04/24 01:14:28;;;;;;;5.80;3.93;;;;;;;;;;6601422;21;20618;-87
2024/04/24 01:16:56;;;;;;;3.63;3.27;;;;;;;;;;6593608;21;20450;-88
2024/04/24 01:19:32;;;;;;;4.53;4.13;;;;;;;;;;6592039;21;20505;-87
2024/04/24 01:22:22;;;;;;;4.17;3.50;;;;;;;;;;6590898;21;20501;-87
2024/04/24 01:24:58;;;;;;;4.37;3.10;;;;;;;;;;6636979;21;20518;-87
2024/04/24 01:27:26;;;;;;;5.57;3.40;;;;;;;;;;6590558;21;20463;-87
2024/04/24 01:29:54;;;;;;;4.80;3.67;;;;;;;;;;6587399;21;21241;-87
2024/04/24 01:32:23;;;;;;;6.60;4.27;;;;;;;;;;6635039;21;20446;-89
2024/04/24 01:35:04;;;;;;;4.57;4.07;;;;;;;;;;6589653;21;20470;-88
2024/04/24 01:37:32;;;;;;;4.40;3.50;;;;;;;;;;6589998;21;20454;-88
2024/04/24 01:39:59;;;;;;;5.00;4.10;;;;;;;;;;6587778;21;20506;-88
2024/04/24 01:42:32;;;;;;;4.40;3.17;;;;;;;;;;6586723;21;20833;-88
2024/04/24 01:45:00;;;;;;;9.63;3.10;;;;;;;;;;6586724;21;20535;-86
2024/04/24 01:47:31;;;;;;;6.13;3.40;;;;;;;;;;6585017;21;20471;-86
2024/04/24 01:50:01;;;;;;;5.60;2.63;;;;;;;;;;6593433;21;20566;-88
2024/04/24 01:52:30;;;;;;;4.17;3.27;;;;;;;;;;6592627;21;21007;-88
2024/04/24 01:55:01;;;;;;;3.70;2.83;;;;;;;;;;6639646;21;21053;-88
2024/04/24 01:57:38;;;;;;;4.67;2.40;;;;;;;;;;6596431;21;20495;-88
2024/04/24 02:00:13;;;;;;;4.17;2.40;;;;;;;;;;6598041;21;20462;-89
2024/04/24 02:02:47;;;;;;;2.70;2.50;;;;;;;;;;6643788;21;20503;-88
2024/04/24 02:05:20;;;;;;;4.23;2.33;;;;;;;;;;6658019;21;20518;-85
2024/04/24 02:07:48;;;;;;;3.60;2.23;;;;;;;;;;6612436;21;20439;-88
2024/04/24 02:10:24;;;;;;;6.90;2.67;;;;;;;;;;6605816;21;20563;-86
2024/04/24 02:12:55;;;;;;;5.20;2.23;;;;;;;;;;6596050;21;20458;-87
2024/04/24 02:15:26;;;;;;;2.63;2.10;;;;;;;;;;6593931;21;20479;-88
2024/04/24 02:17:53;;;;;;;4.63;2.20;;;;;;;;;;6592966;21;20458;-86
2024/04/24 02:20:30;;;;;;;3.07;2.20;;;;;;;;;;6639640;21;20529;-89
2024/04/24 02:23:03;;;;;;;3.23;1.97;;;;;;;;;;6595042;21;20447;-88
2024/04/24 02:25:36;;;;;;;3.90;2.00;;;;;;;;;;6601423;21;20467;-88
2024/04/24 02:28:10;;;;;;;5.00;2.50;;;;;;;;;;6609607;21;20527;-89
2024/04/24 02:30:47;;;;;;;4.20;1.83;;;;;;;;;;6613822;21;20431;-86
2024/04/24 02:33:18;;;;;;;3.40;1.97;;;;;;;;;;6602541;21;20458;-89
2024/04/24 02:35:45;;;;;;;2.23;1.63;;;;;;;;;;6597136;21;20555;-89
2024/04/24 02:38:12;;;;;;;2.40;1.93;;;;;;;;;;6597301;21;20450;-89
2024/04/24 02:40:40;;;;;;;3.83;1.80;;;;;;;;;;6641517;21;20756;-89
2024/04/24 02:43:08;;;;;;;3.07;1.50;;;;;;;;;;6644174;21;20455;-89
2024/04/24 02:45:36;;;;;;;2.23;1.63;;;;;;;;;;6606863;21;20501;-88
2024/04/24 02:48:12;;;;;;;3.03;1.50;;;;;;;;;;6610312;21;20551;-87
2024/04/24 02:50:47;;;;;;;4.20;2.00;;;;;;;;;;6608994;21;20463;-88
2024/04/24 02:53:18;;;;;;;4.40;1.50;;;;;;;;;;6612217;21;20546;-88
2024/04/24 02:55:47;;;;;;;2.30;1.63;;;;;;;;;;6610120;21;20509;-87
2024/04/24 02:58:17;;;;;;;1.93;1.50;;;;;;;;;;6612932;21;20524;-89
2024/04/24 03:00:44;;;;;;;3.63;1.20;;;;;;;;;;6611082;21;20511;-87
2024/04/24 03:03:11;;;;;;;1.63;1.30;;;;;;;;;;6603319;21;20554;-87
2024/04/24 03:05:41;;;;;;;1.77;1.40;;;;;;;;;;6596294;21;20581;-86
2024/04/24 03:08:08;;;;;;;4.60;1.40;;;;;;;;;;6649612;21;20495;-87
2024/04/24 03:10:38;;;;;;;1.83;1.50;;;;;;;;;;6647509;21;20455;-87
2024/04/24 03:13:05;;;;;;;3.60;2.03;;;;;;;;;;6658277;21;20454;-88
2024/04/24 03:15:32;;;;;;;3.13;1.10;;;;;;;;;;6595560;21;20549;-88
2024/04/24 03:18:02;;;;;;;2.53;1.53;;;;;;;;;;6643217;21;20459;-88
2024/04/24 03:20:30;;;;;;;2.83;1.40;;;;;;;;;;6608085;21;20532;-86
2024/04/24 03:22:57;;;;;;;4.70;1.43;;;;;;;;;;6616890;21;20501;-87
2024/04/24 03:25:24;;;;;;;5.60;1.23;;;;;;;;;;6616433;21;20504;-86
2024/04/24 03:27:52;;;;;;;1.90;1.10;;;;;;;;;;6616432;21;20451;-88
2024/04/24 03:30:19;;;;;;;2.93;1.73;;;;;;;;;;6652324;21;20458;-84
2024/04/24 03:32:47;;;;;;;1.73;1.33;;;;;;;;;;6645062;21;20462;-87
2024/04/24 03:35:14;;;;;;;2.43;1.47;;;;;;;;;;6643486;21;20467;-87
2024/04/24 03:37:42;;;;;;;6.33;2.13;;;;;;;;;;6641882;21;20561;-87
2024/04/24 03:40:09;;;;;;;3.03;1.40;;;;;;;;;;6594718;21;20500;-87
2024/04/24 03:42:37;;;;;;;4.23;1.90;;;;;;;;;;6595453;21;20458;-88
2024/04/24 03:45:05;;;;;;;12.10;2.83;;;;;;;;;;6641544;21;20520;-87
2024/04/24 03:47:32;;;;;;;3.77;2.60;;;;;;;;;;6595147;21;20455;-87
2024/04/24 03:50:00;;;;;;;5.83;2.37;;;;;;;;;;6640821;21;20457;-88
2024/04/24 03:52:27;;;;;;;2.63;2.00;;;;;;;;;;6597448;21;20529;-85
2024/04/24 03:54:54;;;;;;;3.40;3.10;;;;;;;;;;6647154;21;20553;-87
2024/04/24 03:57:21;;;;;;;7.07;4.40;;;;;;;;;;6649892;21;20443;-88
2024/04/24 03:59:49;;;;;;;3.67;2.40;;;;;;;;;;6605662;21;20507;-88
2024/04/24 04:02:16;;;;;;;4.07;2.30;;;;;;;;;;6602886;21;20510;-89
2024/04/24 04:04:44;;;;;;;4.40;2.03;;;;;;;;;;6644133;21;20501;-89
2024/04/24 04:07:12;;;;;;;3.23;1.73;;;;;;;;;;6598376;21;20443;-89
2024/04/24 04:09:39;;;;;;;3.53;1.90;;;;;;;;;;6597998;21;20852;-88
2024/04/24 04:12:07;;;;;;;3.30;2.03;;;;;;;;;;6643210;21;20495;-89
2024/04/24 04:14:37;;;;;;;4.43;2.20;;;;;;;;;;6643250;21;20521;-88
2024/04/24 04:17:05;;;;;;;4.33;2.30;;;;;;;;;;6644279;21;20458;-88
2024/04/24 04:19:33;;;;;;;4.63;2.53;;;;;;;;;;6597311;21;20503;-88
2024/04/24 04:22:00;;;;;;;2.33;1.87;;;;;;;;;;6642375;21;20510;-88
2024/04/24 04:24:27;;;;;;;2.53;1.93;;;;;;;;;;6596371;21;20888;-88
2024/04/24 04:26:55;;;;;;;3.47;2.30;;;;;;;;;;6597301;21;20459;-89
2024/04/24 04:29:22;;;;;;;6.67;2.63;;;;;;;;;;6641354;21;20886;-89
2024/04/24 04:31:50;;;;;;;2.67;2.37;;;;;;;;;;6594793;21;20499;-89
2024/04/24 04:34:22;;;;;;;3.00;2.03;;;;;;;;;;6597099;21;20471;-89
2024/04/24 04:36:58;;;;;;;4.50;2.53;;;;;;;;;;6641133;21;20439;-88
2024/04/24 04:39:33;;;;;;;6.53;2.50;;;;;;;;;;6595800;21;20502;-89
2024/04/24 04:42:00;;;;;;;4.13;2.40;;;;;;;;;;6640307;21;20509;-87
2024/04/24 04:44:27;;;;;;;3.20;2.30;;;;;;;;;;6595690;21;20494;-89
2024/04/24 04:47:01;;;;;;;1.73;1.63;;;;;;;;;;6599468;21;20834;-87
2024/04/24 04:49:31;;;;;;;5.17;2.27;;;;;;;;;;6614385;21;20451;-88
2024/04/24 04:52:04;;;;;;;2.00;1.80;;;;;;;;;;6660020;21;20448;-89
2024/04/24 04:54:31;;;;;;;3.00;1.40;;;;;;;;;;6612557;21;20497;-86
2024/04/24 04:56:59;;;;;;;3.43;1.40;;;;;;;;;;6612229;21;20443;-88
2024/04/24 04:59:26;;;;;;;3.10;2.77;;;;;;;;;;6656688;21;20524;-88
2024/04/24 05:01:59;;;;;;;2.30;2.10;;;;;;;;;;6651844;21;20535;-88
2024/04/24 05:04:34;;;;;;;3.00;1.70;;;;;;;;;;6614852;21;20471;-86
2024/04/24 05:07:02;;;;;;;3.90;2.07;;;;;;;;;;6571900;21;20987;-87
2024/04/24 05:09:32;;;;;;;1.70;1.40;;;;;;;;;;6593212;21;20532;-88
2024/04/24 05:11:59;;;;;;;4.70;2.03;;;;;;;;;;6594159;21;20947;-88
2024/04/24 05:14:30;;;;;;;3.10;1.80;;;;;;;;;;6595184;21;20521;-87
2024/04/24 05:16:58;;;;;;;1.80;1.60;;;;;;;;;;6548583;21;20452;-88
2024/04/24 05:19:25;;;;;;;5.37;1.70;;;;;;;;;;6545278;21;20471;-87
2024/04/24 05:22:15;;;;;;;2.60;1.60;;;;;;;;;;6502970;21;20448;-89
2024/04/24 05:24:41;;;;;;;5.10;1.53;;;;;;;;;;6590519;21;20468;-88
2024/04/24 05:30:00;;;;;;;1.93;1.83;;;;;;;;;;6589060;21;20499;-88
2024/04/24 05:32:28;;;;;;;2.53;1.83;;;;;;;;;;6545123;21;20457;-89
2024/04/24 05:34:56;;;;;;;4.20;2.00;;;;;;;;;;6588816;21;20535;-88
2024/04/24 05:37:26;;;;;;;2.93;1.67;;;;;;;;;;6544476;21;20448;-88
2024/04/24 05:39:55;;;;;;;8.57;1.87;;;;;;;;;;6544536;21;20448;-88
2024/04/24 05:42:25;;;;;;;4.43;1.73;;;;;;;;;;6547653;21;20456;-88
2024/04/24 05:44:56;;;;;;;4.20;1.73;;;;;;;;;;6546643;21;20476;-88
2024/04/24 05:47:23;;;;;;;2.97;1.63;;;;;;;;;;6588500;21;20513;-88
2024/04/24 05:49:55;;;;;;;3.57;1.53;;;;;;;;;;6544451;21;20468;-88
2024/04/24 05:52:25;;;;;;;2.03;1.83;;;;;;;;;;6542426;21;20468;-89
2024/04/24 05:54:53;;;;;;;5.90;2.67;;;;;;;;;;6543393;21;20492;-88
2024/04/24 05:57:27;;;;;;;6.23;2.90;;;;;;;;;;6543433;21;20978;-90
2024/04/24 05:59:55;;;;;;;6.37;2.50;;;;;;;;;;6543631;21;20444;-87
2024/04/24 06:02:23;;;;;;;5.43;3.17;;;;;;;;;;6588107;21;20509;-90
2024/04/24 06:04:52;;;;;;;4.40;3.13;;;;;;;;;;6553449;21;20472;-87
2024/04/24 06:07:27;;;;;;;4.37;3.20;;;;;;;;;;6550251;21;20468;-88
2024/04/24 06:09:57;;;;;;;3.10;2.67;;;;;;;;;;6551219;21;20506;-88
2024/04/24 06:12:28;;;;;;;4.17;2.90;;;;;;;;;;6591432;21;20448;-88
2024/04/24 06:14:56;;;;;;;3.30;2.93;;;;;;;;;;6545159;21;20598;-88
2024/04/24 06:17:23;;;;;;;2.70;2.50;;;;;;;;;;6546461;21;20464;-88
2024/04/24 06:19:56;;;;;;;3.50;3.20;;;;;;;;;;6590289;21;20448;-88
2024/04/24 06:22:25;;;;;;;9.50;3.53;;;;;;;;;;6545174;21;20467;-88
2024/04/24 06:24:58;;;;;;;5.63;3.70;;;;;;;;;;6546471;21;20533;-87
2024/04/24 06:27:31;;;;;;;5.87;3.10;;;;;;;;;;6553255;21;20464;-87
2024/04/24 06:30:01;;;;;;;4.50;3.03;;;;;;;;;;6594349;21;20572;-86
2024/04/24 06:32:30;;;;;;;3.43;2.80;;;;;;;;;;6558097;21;20497;-87
2024/04/24 06:37:36;;;;;;;5.07;3.33;;;;;;;;;;6659865;21;20501;-88
2024/04/24 06:40:10;;;;;;;5.27;3.27;;;;;;;;;;6616355;21;20498;-87
2024/04/24 06:42:41;;;;;;;4.20;3.00;;;;;;;;;;6591880;21;20492;-87
2024/04/24 06:45:13;;;;;;;4.63;2.23;;;;;;;;;;6546106;21;20553;-86
2024/04/24 06:47:48;;;;;;;2.73;2.27;;;;;;;;;;6534085;21;20454;-87
2024/04/24 06:50:27;;;;;;;3.73;2.23;;;;;;;;;;6554561;21;20480;-85
2024/04/24 06:52:56;;;;;;;4.13;2.50;;;;;;;;;;6553554;21;20482;-87
2024/04/24 06:55:27;;;;;;;5.27;3.60;;;;;;;;;;6550494;21;20521;-87
2024/04/24 06:57:55;;;;;;;3.30;2.97;;;;;;;;;;6544800;22;20457;-87
2024/04/24 07:00:30;;;;;;;3.03;2.83;;;;;;;;;;6544710;21;20526;-87
2024/04/24 07:02:58;;;;;;;6.37;2.33;;;;;;;;;;6539904;22;20465;-88
2024/04/24 07:05:28;;;;;;;3.53;2.97;;;;;;;;;;6540882;21;20567;-88
2024/04/24 07:07:56;;;;;;;3.83;3.20;;;;;;;;;;6535411;22;20529;-87
2024/04/24 07:10:24;;;;;;;5.97;4.03;;;;;;;;;;6541693;22;20485;-86
2024/04/24 07:12:52;;;;;;;4.70;3.90;;;;;;;;;;6542716;22;20534;-88
2024/04/24 07:15:21;;;;;;;6.23;3.40;;;;;;;;;;6542940;21;20524;-89
2024/04/24 07:17:51;;;;;;;4.50;2.87;;;;;;;;;;6541196;22;20457;-88
2024/04/24 07:20:24;;;;;;;5.30;2.83;;;;;;;;;;6539944;22;20469;-89
2024/04/24 07:22:57;;;;;;;4.37;3.03;;;;;;;;;;6540218;22;20854;-88
2024/04/24 07:25:26;;;;;;;5.07;2.60;;;;;;;;;;6497096;22;21097;-89
2024/04/24 07:27:54;;;;;;;3.13;2.40;;;;;;;;;;6541327;21;20438;-88
2024/04/24 07:30:22;;;;;;;2.60;1.80;;;;;;;;;;6542759;22;20449;-87
2024/04/24 07:32:50;;;;;;;5.97;2.20;;;;;;;;;;6546133;22;20466;-86
2024/04/24 07:35:18;;;;;;;2.40;2.10;;;;;;;;;;6540932;21;20489;-87
2024/04/24 07:37:46;;;;;;;4.83;2.17;;;;;;;;;;6547971;22;20504;-87
2024/04/24 07:40:15;;;;;;;2.07;1.87;;;;;;;;;;6554533;21;20486;-88
2024/04/24 07:42:45;;;;;;;3.30;2.07;;;;;;;;;;6553623;21;20497;-87
2024/04/24 07:45:13;;;;;;;2.40;1.70;;;;;;;;;;6552543;21;20540;-88
2024/04/24 07:47:54;;;;;;;2.00;1.80;;;;;;;;;;6550012;21;20435;-87
2024/04/24 07:50:22;;;;;;;2.40;1.60;;;;;;;;;;6545635;22;20541;-87
2024/04/24 07:56:01;;;;;;;;;;;;;;;;;;;;;
2024/04/24 07:59:10;;;;;;;2.07;1.70;;;;;;;;;;6608452;21;20490;-86
2024/04/24 08:01:43;;;;;;;4.67;3.20;;;;;;;;;;6602762;21;20483;-87
2024/04/24 08:04:24;;;;;;;2.00;1.80;;;;;;;;;;6604901;21;20464;-88
2024/04/24 08:07:01;;;;;;;3.97;1.70;;;;;;;;;;6607059;21;20552;-86
2024/04/24 08:09:29;;;;;;;3.17;1.90;;;;;;;;;;6607200;21;20493;-87
2024/04/24 08:19:33;;;;;;;5.50;2.13;;;;;;;;;;6559240;21;20478;-88
2024/04/24 08:29:04;;;;;;;4.43;1.43;;;;;;;;;;6606606;21;20472;-88
2024/04/24 08:39:05;;;;;;;4.87;2.10;;;;;;;;;;6400121;22;20507;-86
2024/04/24 08:42:00;;;;;;;3.33;2.80;;;;;;;;;;6340027;22;20524;-89
2024/04/24 08:53:35;;;;;;;2.77;2.43;;;;;;;;;;6600550;21;20603;-86
2024/04/24 08:56:44;;;;;;;4.10;2.20;;;;;;;;;;6592111;21;20531;-88
2024/04/24 08:59:53;;;;;;;2.50;1.83;;;;;;;;;;6540445;21;20464;-87
2024/04/24 09:20:28;;;;;;;4.17;2.00;;;;;;;;;;6592875;21;20575;-88
2024/04/24 09:23:18;;;;;;;4.40;2.47;;;;;;;;;;6591278;21;20497;-88
2024/04/24 09:26:15;;;;;;;2.60;2.07;;;;;;;;;;6457497;21;20522;-85
2024/04/24 09:33:48;;;;;;;5.13;1.70;;;;;;;;;;6554659;21;20502;-87
2024/04/24 09:37:11;;;;;;;4.53;2.23;;;;;;;;;;6553292;21;20563;-87
2024/04/24 09:40:10;;;;;;;2.97;1.90;;;;;;;;;;6522989;21;20456;-88
2024/04/24 09:43:29;;;;;;;2.40;1.80;;;;;;;;;;6584628;21;20849;-88
2024/04/24 09:46:44;;;;;;;3.57;1.70;;;;;;;;;;6538753;22;20538;-88
2024/04/24 09:53:12;;;;;;;2.17;1.80;;;;;;;;;;6532263;22;20489;-86
2024/04/24 09:56:19;;;;;;;1.50;1.40;;;;;;;;;;6477054;22;20481;-88
2024/04/24 09:59:26;;;;;;;1.90;1.37;;;;;;;;;;6567625;21;20530;-88
2024/04/24 10:03:07;;;;;;;11.90;2.97;;;;;;;;;;6580849;21;20543;-88
2024/04/24 10:06:11;;;;;;;3.03;1.50;;;;;;;;;;6467074;21;20578;-88
2024/04/24 10:16:11;;;;;;;3.67;2.10;;;;;;;;;;6526259;21;20504;-86
2024/04/24 10:19:44;;;;;;;;;;;;;;;;;;;;;
2024/04/24 10:40:18;;;;;;;2.17;1.00;;;;;;;;;;6349244;22;20465;-89
2024/04/24 10:43:34;;;;;;;3.60;1.23;;;;;;;;;;6126044;23;20565;-86
2024/04/24 10:50:18;;;;;;;2.23;1.33;;;;;;;;;;6191106;22;20468;-87
2024/04/24 11:00:26;;;;;;;6.20;2.07;;;;;;;;;;6390197;22;20557;-85
2024/04/24 11:03:51;;;;;;;3.17;2.67;;;;;;;;;;6283812;22;20462;-88
2024/04/24 11:07:05;;;;;;;;;;;;;;;;;;;;;
2024/04/24 11:10:18;;;;;;;4.90;2.57;;;;;;;;;;6311539;22;21021;-87
2024/04/24 11:13:38;;;;;;;2.10;1.30;;;;;;;;;;6348185;22;20448;-86
2024/04/24 11:16:36;;;;;;;2.07;1.77;;;;;;;;;;6537239;21;20524;-87
2024/04/24 11:19:50;;;;;;;4.03;1.33;;;;;;;;;;6545355;21;20452;-87
2024/04/24 11:22:55;;;;;;;2.73;1.33;;;;;;;;;;6493209;21;20583;-86
2024/04/24 11:29:19;;;;;;;5.90;2.27;;;;;;;;;;6584848;21;20503;-87
2024/04/24 11:32:44;;;;;;;4.73;1.60;;;;;;;;;;6497229;21;21452;-86
2024/04/24 11:35:42;;;;;;;1.43;1.33;;;;;;;;;;6320770;22;20607;-87
2024/04/24 11:39:01;;;;;;;3.43;1.33;;;;;;;;;;6332724;22;20838;-86
2024/04/24 11:42:09;;;;;;;2.70;1.83;;;;;;;;;;6159065;22;20465;-86
2024/04/24 11:45:15;;;;;;;3.47;2.23;;;;;;;;;;6297539;22;20495;-87
2024/04/24 11:48:49;;;;;;;;;;;;;;;;;;;;;
2024/04/24 11:52:03;;;;;;;3.93;1.97;;;;;;;;;;6336755;22;20471;-85
2024/04/24 12:05:46;;;;;;;3.27;2.20;;;;;;;;;;6239042;23;20563;-86
2024/04/24 12:51:59;;;;;;;2.40;1.80;;;;;;;;;;6542183;21;20474;-87
2024/04/24 12:58:38;;;;;;;5.13;1.70;;;;;;;;;;6198601;22;20583;-86
2024/04/24 13:01:43;;;;;;;;;;;;;;;;;;;;;
2024/04/24 13:05:05;;;;;;;2.80;2.00;;;;;;;;;;6275853;22;21078;-86
2024/04/24 13:08:34;;;;;;;;;;;;;;;;;;;;;
2024/04/24 13:12:07;;;;;;;2.97;1.93;;;;;;;;;;6288719;22;20493;-88
2024/04/24 13:35:22;;;;;;;2.23;1.87;;;;;;;;;;6104292;23;20549;-88
2024/04/24 13:38:45;;;;;;;2.27;2.10;;;;;;;;;;6050872;23;20536;-88
2024/04/24 16:39:26;;;;;;;1.43;1.33;;;;;;;;;;6592510;21;20507;-88
2024/04/24 16:46:05;;;;;;;3.00;1.20;;;;;;;;;;6634806;21;20493;-87
2024/04/24 16:49:28;;;;;;;2.60;1.17;;;;;;;;;;6607177;21;20466;-88
2024/04/24 16:52:02;;;;;;;28.90;26.03;;;;;;;;;;6591591;21;20766;-87
2024/04/24 16:54:44;;;;;;;1.30;1.20;;;;;;;;;;6570184;21;20474;-86
2024/04/24 16:57:22;;;;;;;3.00;1.37;;;;;;;;;;6646614;21;20446;-87
2024/04/24 17:00:12;;;;;;;2.20;1.20;;;;;;;;;;6601705;21;20561;-88
2024/04/24 17:03:11;;;;;;;4.50;1.40;;;;;;;;;;6642171;21;20454;-87
2024/04/24 17:05:59;;;;;;;2.00;1.90;;;;;;;;;;6605302;21;20524;-85
2024/04/24 17:15:25;;;;;;;3.63;1.77;;;;;;;;;;6621446;21;20514;-85
2024/04/24 17:21:08;;;;;;;2.13;1.30;;;;;;;;;;6636727;21;20511;-87
2024/04/24 17:23:52;;;;;;;;;;;;;;;;;;;;;
2024/04/24 17:27:14;;;;;;;5.40;1.57;;;;;;;;;;6640601;21;20502;-85
2024/04/24 17:30:15;;;;;;;;;;;;;;;;;;;;;
2024/04/24 17:37:12;;;;;;;8.10;2.00;;;;;;;;;;6224169;23;20603;-86
2024/04/24 17:39:48;;;;;;;2.50;1.30;;;;;;;;;;6252313;22;20512;-85
2024/04/24 17:42:26;;;;;;;4.43;2.00;;;;;;;;;;6328949;22;20530;-83
2024/04/24 17:45:16;;;;;;;3.57;1.73;;;;;;;;;;6341700;21;20549;-84
2024/04/24 17:48:08;;;;;;;1.60;1.13;;;;;;;;;;6588344;21;20545;-82
2024/04/24 17:50:38;;;;;;;1.57;1.30;;;;;;;;;;6634040;21;20935;-82
2024/04/24 17:53:14;;;;;;;3.37;1.60;;;;;;;;;;6591689;21;20514;-84
2024/04/24 17:56:05;;;;;;;1.67;1.30;;;;;;;;;;6576973;21;20505;-84
2024/04/24 17:58:45;;;;;;;3.70;1.83;;;;;;;;;;6611055;21;20435;-83
2024/04/24 18:01:29;;;;;;;1.90;1.50;;;;;;;;;;6609225;21;20466;-85
2024/04/24 18:04:41;;;;;;;4.10;1.40;;;;;;;;;;6605054;21;20545;-85
2024/04/24 18:07:30;;;;;;;4.17;1.53;;;;;;;;;;6596386;21;20439;-83
2024/04/24 18:10:12;;;;;;;3.10;1.90;;;;;;;;;;6597025;21;20570;-84
2024/04/24 18:13:16;;;;;;;5.83;2.10;;;;;;;;;;6593918;21;20497;-86
2024/04/24 18:16:08;;;;;;;2.47;1.53;;;;;;;;;;6575630;21;20976;-83
2024/04/24 18:19:05;;;;;;;2.00;1.47;;;;;;;;;;6616821;21;20534;-85
2024/04/24 18:21:52;;;;;;;1.60;1.30;;;;;;;;;;6640800;21;20518;-84
2024/04/24 18:24:51;;;;;;;2.40;1.53;;;;;;;;;;6591886;21;20554;-85
2024/04/24 18:27:41;;;;;;;3.53;1.10;;;;;;;;;;6597182;21;20489;-83
2024/04/24 18:30:23;;;;;;;2.93;1.27;;;;;;;;;;6589221;21;20530;-86
2024/04/24 18:33:02;;;;;;;1.97;1.77;;;;;;;;;;6644230;21;20589;-85
2024/04/24 18:35:53;;;;;;;;;;;;;;;;;;;;;
2024/04/24 18:39:02;;;;;;;4.30;1.33;;;;;;;;;;6626052;21;20998;-85
2024/04/24 18:41:38;;;;;;;1.63;1.00;;;;;;;;;;6591489;21;20837;-84
2024/04/24 18:44:39;;;;;;;1.30;0.80;;;;;;;;;;6643368;21;20507;-86
2024/04/24 18:47:36;;;;;;;1.30;0.83;;;;;;;;;;6600109;21;20585;-87
2024/04/24 18:50:14;;;;;;;2.10;1.20;;;;;;;;;;6605234;21;20452;-85
2024/04/24 18:53:07;;;;;;;0.97;0.87;;;;;;;;;;6604694;21;20451;-84
2024/04/24 18:55:41;;;;;;;3.30;1.73;;;;;;;;;;6598912;21;20501;-86
2024/04/24 18:58:22;;;;;;;5.90;1.57;;;;;;;;;;6601997;21;20745;-87
2024/04/24 19:01:07;;;;;;;4.63;1.30;;;;;;;;;;6633043;21;20751;-86
2024/04/24 19:06:51;;;;;;;2.10;1.67;;;;;;;;;;6645423;21;20538;-86
2024/04/24 19:09:22;;;;;;;3.80;1.60;;;;;;;;;;6561070;21;20531;-85
2024/04/24 19:12:03;;;;;;;4.67;1.37;;;;;;;;;;6560771;21;20454;-88
2024/04/24 19:14:39;;;;;;;1.30;1.20;;;;;;;;;;6580968;21;20519;-88
2024/04/24 19:17:12;;;;;;;2.10;1.50;;;;;;;;;;6647919;21;20458;-87
2024/04/24 19:20:00;;;;;;;;;;;;;;;;;;;;;
2024/04/24 19:22:48;;;;;;;4.60;1.77;;;;;;;;;;6646770;21;20537;-88
2024/04/24 19:25:19;;;;;;;3.20;1.10;;;;;;;;;;6647086;21;20507;-88
2024/04/24 19:28:02;;;;;;;2.70;1.30;;;;;;;;;;6607386;21;20474;-85
2024/04/24 19:30:36;;;;;;;1.67;1.40;;;;;;;;;;6605097;21;20458;-86
2024/04/24 19:33:48;;;;;;;;;;;;;;;;;;;;;
2024/04/24 19:36:25;;;;;;;2.60;1.40;;;;;;;;;;6650937;21;20513;-89
2024/04/24 19:39:08;;;;;;;1.50;0.97;;;;;;;;;;6605387;21;20526;-88
2024/04/24 20:01:24;;;;;;;2.20;1.30;;;;;;;;;;6602347;21;20499;-88
2024/04/24 20:04:42;;;;;;;;;;;;;;;;;;;;;
2024/04/24 20:07:40;;;;;;;2.50;1.53;;;;;;;;;;6507653;21;21408;-89
2024/04/24 20:13:43;;;;;;;2.73;1.67;;;;;;;;;;6578574;21;20463;-85
2024/04/24 20:16:45;;;;;;;3.40;1.73;;;;;;;;;;6595820;21;20536;-88
2024/04/24 20:19:39;;;;;;;3.57;1.37;;;;;;;;;;6595013;21;20452;-89
2024/04/24 20:23:07;;;;;;;2.13;1.20;;;;;;;;;;6600823;21;20495;-88
2024/04/24 20:29:04;;;;;;;1.90;1.40;;;;;;;;;;6596416;21;20506;-89
2024/04/24 20:31:50;;;;;;;3.60;1.20;;;;;;;;;;6592967;21;20507;-87
2024/04/24 20:34:44;;;;;;;1.77;0.93;;;;;;;;;;6477433;21;20519;-88
2024/04/24 20:37:49;;;;;;;1.20;1.10;;;;;;;;;;6556635;21;20552;-88
2024/04/24 20:41:37;;;;;;;1.03;0.93;;;;;;;;;;6542467;21;20464;-88
2024/04/24 20:44:42;;;;;;;5.67;1.53;;;;;;;;;;6549998;21;20476;-88
2024/04/24 20:47:33;;;;;;;1.97;1.10;;;;;;;;;;6583113;21;20554;-88
2024/04/24 20:50:32;;;;;;;1.03;1.03;;;;;;;;;;6590972;21;20504;-88
2024/04/24 20:53:35;;;;;;;3.47;1.17;;;;;;;;;;6542734;21;20472;-88
2024/04/24 20:59:58;;;;;;;1.03;1.03;;;;;;;;;;6592528;21;20853;-87
2024/04/24 21:02:41;;;;;;;3.87;1.40;;;;;;;;;;6585492;21;20514;-89
2024/04/24 21:11:57;;;;;;;2.53;1.00;;;;;;;;;;6482427;22;20459;-89
2024/04/24 21:18:36;;;;;;;;;;;;;;;;;;;;;
2024/04/24 21:21:29;;;;;;;3.10;2.00;;;;;;;;;;6452013;22;21038;-88
2024/04/24 21:24:39;;;;;;;1.97;1.70;;;;;;;;;;6440244;22;20506;-88
2024/04/24 21:27:23;;;;;;;2.10;1.33;;;;;;;;;;6393927;22;20460;-87
2024/04/24 21:30:21;;;;;;;2.60;1.17;;;;;;;;;;6257312;22;20480;-87
2024/04/24 21:49:32;;;;;;;;;;;;;;;;;;;;;
2024/04/24 21:59:17;;;;;;;3.07;1.27;;;;;;;;;;6541945;22;20537;-87
2024/04/24 22:01:55;;;;;;;1.73;1.63;;;;;;;;;;6499498;22;20458;-87
2024/04/24 22:04:51;;;;;;;2.97;1.10;;;;;;;;;;6595945;21;20469;-83
2024/04/24 22:07:34;;;;;;;4.20;1.60;;;;;;;;;;6589572;21;20507;-88
2024/04/24 22:10:50;;;;;;;2.30;1.03;;;;;;;;;;6395471;22;20515;-87
2024/04/24 22:17:48;;;;;;;2.70;1.17;;;;;;;;;;6204080;22;20479;-89
2024/04/24 22:20:36;;;;;;;3.33;1.37;;;;;;;;;;6365574;22;20524;-87
2024/04/24 22:23:35;;;;;;;;;;;;;;;;;;;;;
2024/04/24 22:27:19;;;;;;;2.57;1.83;;;;;;;;;;6283659;22;20483;-87
2024/04/24 22:30:19;;;;;;;1.87;1.40;;;;;;;;;;6303757;22;20516;-88
2024/04/24 22:37:03;;;;;;;;;;;;;;;;;;;;;
2024/04/24 22:40:02;;;;;;;1.93;1.43;;;;;;;;;;6594732;21;20542;-88
2024/04/24 22:42:41;;;;;;;2.73;2.20;;;;;;;;;;6525974;21;20578;-88
2024/04/24 22:45:33;;;;;;;4.53;1.87;;;;;;;;;;6433247;21;20563;-88
2024/04/24 23:02:10;;;;;;;5.10;2.50;;;;;;;;;;6418997;22;20542;-89
2024/04/24 23:05:30;;;;;;;6.20;2.97;;;;;;;;;;6400314;21;20499;-88
2024/04/24 23:12:30;;;;;;;8.83;2.80;;;;;;;;;;6330148;22;20612;-87
2024/04/24 23:26:04;;;;;;;3.30;2.30;;;;;;;;;;6229416;22;20540;-88
2024/04/24 23:39:24;;;;;;;4.17;2.10;;;;;;;;;;6090157;23;20565;-86
2024/04/24 23:45:45;;;;;;;2.40;1.70;;;;;;;;;;6473532;21;20572;-88
2024/04/24 23:48:53;;;;;;;;;;;;;;;;;;;;;
2024/04/24 23:51:51;;;;;;;;;;;;;;;;;;;;;
